createdAt,value
2022-10-05T00:00:27.827Z,3.05
2022-10-05T00:02:56.102Z,3.85
2022-10-05T00:05:27.541Z,4.22
2022-10-05T00:07:57.901Z,3.92
2022-10-05T00:10:24.924Z,3.25
2022-10-05T00:12:51.784Z,5.82
2022-10-05T00:15:21.098Z,5.15
2022-10-05T00:17:48.275Z,3.58
2022-10-05T00:20:26.439Z,4.57
2022-10-05T00:23:00.780Z,4.75
2022-10-05T00:25:27.807Z,4.80
2022-10-05T00:27:57.529Z,9.75
2022-10-05T00:30:27.214Z,6.20
2022-10-05T00:32:59.348Z,5.78
2022-10-05T00:35:29.468Z,6.22
2022-10-05T00:37:56.859Z,5.43
2022-10-05T00:41:08.284Z,5.25
2022-10-05T00:44:11.162Z,6.05
2022-10-05T00:47:25.445Z,7.45
2022-10-05T00:50:25.515Z,6.05
2022-10-05T00:53:25.656Z,5.07
2022-10-05T00:55:58.703Z,5.07
2022-10-05T00:58:55.658Z,6.50
2022-10-05T01:01:53.156Z,8.60
2022-10-05T01:04:44.523Z,7.28
2022-10-05T01:07:23.549Z,6.78
2022-10-05T01:10:08.927Z,3.60
2022-10-05T01:13:13.878Z,7.13
2022-10-05T01:15:55.578Z,4.25
2022-10-05T01:18:39.506Z,6.95
2022-10-05T01:21:21.561Z,7.50
2022-10-05T01:23:58.676Z,5.93
2022-10-05T01:26:43.951Z,6.05
2022-10-05T01:29:22.945Z,5.53
2022-10-05T01:31:49.833Z,6.97
2022-10-05T01:34:29.695Z,5.38
2022-10-05T01:37:08.285Z,4.07
2022-10-05T01:39:38.025Z,7.25
2022-10-05T01:42:29.499Z,10.55
2022-10-05T01:45:23.988Z,4.63
2022-10-05T01:47:58.623Z,5.93
2022-10-05T01:50:54.767Z,4.82
2022-10-05T01:53:27.359Z,5.13
2022-10-05T01:56:03.120Z,6.53
2022-10-05T01:59:06.319Z,7.18
2022-10-05T02:01:44.127Z,6.80
2022-10-05T02:05:00.951Z,6.00
2022-10-05T02:07:27.422Z,5.30
2022-10-05T02:10:00.749Z,13.35
2022-10-05T02:12:31.489Z,6.97
2022-10-05T02:15:08.167Z,5.78
2022-10-05T02:17:40.252Z,5.55
2022-10-05T02:20:11.240Z,5.80
2022-10-05T02:22:47.160Z,4.43
2022-10-05T02:25:17.859Z,6.78
2022-10-05T02:27:53.611Z,4.97
2022-10-05T02:30:20.830Z,5.07
2022-10-05T02:33:01.665Z,3.25
2022-10-05T02:35:28.793Z,6.50
2022-10-05T02:38:14.428Z,5.53
2022-10-05T02:40:56.125Z,3.30
2022-10-05T02:43:46.566Z,5.00
2022-10-05T02:46:30.778Z,6.13
2022-10-05T02:49:19.929Z,3.03
2022-10-05T02:52:14.011Z,5.15
2022-10-05T02:54:58.888Z,5.15
2022-10-05T02:57:34.280Z,6.20
2022-10-05T03:00:22.630Z,3.40
2022-10-05T03:03:04.767Z,3.00
2022-10-05T03:05:47.168Z,3.08
2022-10-05T03:08:52.009Z,3.55
2022-10-05T03:11:50.170Z,3.37
2022-10-05T03:14:28.468Z,3.65
2022-10-05T03:17:14.346Z,2.60
2022-10-05T03:20:20.139Z,4.10
2022-10-05T03:22:57.395Z,3.17
2022-10-05T03:25:36.307Z,2.00
2022-10-05T03:28:22.443Z,5.90
2022-10-05T03:31:05.150Z,3.38
2022-10-05T03:34:03.204Z,1.88
2022-10-05T03:36:49.709Z,2.20
2022-10-05T03:39:22.505Z,2.63
2022-10-05T03:42:09.938Z,3.38
2022-10-05T03:44:39.428Z,3.50
2022-10-05T03:47:21.159Z,5.28
2022-10-05T03:50:14.328Z,2.95
2022-10-05T03:53:14.582Z,2.08
2022-10-05T03:55:45.415Z,2.63
2022-10-05T03:58:32.808Z,2.42
2022-10-05T04:01:05.643Z,1.92
2022-10-05T04:03:46.165Z,1.77
2022-10-05T04:06:27.524Z,3.10
2022-10-05T04:09:02.143Z,3.92
2022-10-05T04:11:41.493Z,3.05
2022-10-05T04:14:16.211Z,2.75
2022-10-05T04:16:47.496Z,2.03
2022-10-05T04:19:53.537Z,2.75
2022-10-05T04:25:27.520Z,2.70
2022-10-05T04:28:17.706Z,4.90
2022-10-05T04:30:50.576Z,3.70
2022-10-05T04:33:17.606Z,3.42
2022-10-05T04:36:13.020Z,3.08
2022-10-05T04:39:10.359Z,2.22
2022-10-05T04:41:57.539Z,3.15
2022-10-05T04:45:00.258Z,4.32
2022-10-05T04:47:40.052Z,2.05
2022-10-05T04:50:31.175Z,3.10
2022-10-05T04:53:12.711Z,3.78
2022-10-05T04:55:59.621Z,4.22
2022-10-05T04:58:45.448Z,3.05
2022-10-05T05:01:34.676Z,1.88
2022-10-05T05:04:21.583Z,4.05
2022-10-05T05:07:26.821Z,3.78
2022-10-05T05:10:05.297Z,1.95
2022-10-05T05:12:53.959Z,3.05
2022-10-05T05:16:09.998Z,2.90
2022-10-05T05:18:39.857Z,2.72
2022-10-05T05:21:24.879Z,2.97
2022-10-05T05:26:47.772Z,5.03
2022-10-05T05:29:26.247Z,3.45
2022-10-05T05:32:05.327Z,2.58
2022-10-05T05:35:11.317Z,3.35
2022-10-05T05:37:44.101Z,2.72
2022-10-05T05:40:53.536Z,2.70
2022-10-05T05:43:31.148Z,3.53
2022-10-05T05:46:01.418Z,4.30
2022-10-05T05:48:45.536Z,2.60
2022-10-05T05:51:35.466Z,4.18
2022-10-05T05:54:20.304Z,3.85
2022-10-05T05:57:11.039Z,3.38
2022-10-05T06:00:00.705Z,7.45
2022-10-05T06:02:52.935Z,3.80
2022-10-05T06:05:40.281Z,6.72
2022-10-05T06:08:17.955Z,3.75
2022-10-05T06:10:53.136Z,4.10
2022-10-05T06:13:43.857Z,5.03
2022-10-05T06:16:25.535Z,3.45
2022-10-05T06:19:10.583Z,3.75
2022-10-05T06:24:18.412Z,2.90
2022-10-05T06:27:08.987Z,5.18
2022-10-05T06:29:49.607Z,3.55
2022-10-05T06:32:50.212Z,3.70
2022-10-05T06:35:38.946Z,4.07
2022-10-05T06:38:34.826Z,2.70
2022-10-05T06:41:19.995Z,5.28
2022-10-05T06:44:00.584Z,5.38
2022-10-05T06:46:39.578Z,4.97
2022-10-05T06:49:31.102Z,4.53
2022-10-05T06:52:26.021Z,4.25
2022-10-05T06:55:24.256Z,3.70
2022-10-05T06:58:16.111Z,4.28
2022-10-05T07:00:52.620Z,3.78
2022-10-05T07:03:41.013Z,6.47
2022-10-05T07:06:34.024Z,5.22
2022-10-05T07:09:34.388Z,2.83
2022-10-05T07:12:20.050Z,3.83
2022-10-05T07:14:49.870Z,3.15
2022-10-05T07:17:45.568Z,4.50
2022-10-05T07:20:25.709Z,3.70
2022-10-05T07:23:11.986Z,4.47
2022-10-05T07:26:04.976Z,3.72
2022-10-05T07:28:47.466Z,2.67
2022-10-05T07:31:17.679Z,4.07
2022-10-05T07:33:53.258Z,5.13
2022-10-05T07:37:00.593Z,3.80
2022-10-05T07:39:55.276Z,4.13
2022-10-05T07:42:49.125Z,4.43
2022-10-05T07:45:46.829Z,3.97
2022-10-05T07:48:44.886Z,4.00
2022-10-05T07:51:41.343Z,3.17
2022-10-05T07:54:19.253Z,2.95
2022-10-05T07:56:50.686Z,4.00
2022-10-05T07:59:33.072Z,4.18
2022-10-05T08:02:20.414Z,4.53
2022-10-05T08:05:14.113Z,3.30
2022-10-05T08:07:41.740Z,3.75
2022-10-05T08:10:23.525Z,2.78
2022-10-05T08:13:12.654Z,4.53
2022-10-05T08:15:48.487Z,4.18
2022-10-05T08:18:34.310Z,2.83
2022-10-05T08:21:01.839Z,5.95
2022-10-05T08:23:38.606Z,3.63
2022-10-05T08:26:26.794Z,4.32
2022-10-05T08:29:14.130Z,2.90
2022-10-05T08:31:44.436Z,5.05
2022-10-05T08:34:36.726Z,3.22
2022-10-05T08:37:18.471Z,3.20
2022-10-05T08:39:58.866Z,2.28
2022-10-05T08:42:51.006Z,2.05
2022-10-05T08:45:53.300Z,3.70
2022-10-05T08:48:41.879Z,6.63
2022-10-05T08:51:30.069Z,4.35
2022-10-05T08:54:12.305Z,3.15
2022-10-05T08:56:51.512Z,4.25
2022-10-05T08:59:55.429Z,3.13
2022-10-05T09:02:40.451Z,4.63
2022-10-05T09:08:01.757Z,3.35
2022-10-05T09:10:28.635Z,4.40
2022-10-05T09:13:18.727Z,4.53
2022-10-05T09:15:54.629Z,7.70
2022-10-05T09:18:39.565Z,6.15
2022-10-05T09:21:32.551Z,6.90
2022-10-05T09:24:10.500Z,5.00
2022-10-05T09:26:58.953Z,5.22
2022-10-05T09:29:50.677Z,3.00
2022-10-05T09:32:46.435Z,5.38
2022-10-05T09:35:41.101Z,7.22
2022-10-05T09:38:19.691Z,6.72
2022-10-05T09:40:49.661Z,6.68
2022-10-05T09:43:16.505Z,8.48
2022-10-05T09:46:07.356Z,7.72
2022-10-05T09:48:55.048Z,7.65
2022-10-05T09:51:32.164Z,4.47
2022-10-05T09:54:16.737Z,6.40
2022-10-05T09:57:05.974Z,9.02
2022-10-05T09:59:54.422Z,6.22
2022-10-05T10:02:39.436Z,5.38
2022-10-05T10:05:49.124Z,5.70
2022-10-05T10:08:52.068Z,5.18
2022-10-05T10:11:43.881Z,8.95
2022-10-05T10:14:30.481Z,6.75
2022-10-05T10:17:02.897Z,5.00
2022-10-05T10:19:43.817Z,6.82
2022-10-05T10:22:39.698Z,7.32
2022-10-05T10:25:38.893Z,6.85
2022-10-05T10:28:42.585Z,6.70
2022-10-05T10:31:27.466Z,8.35
2022-10-05T10:34:14.360Z,6.10
2022-10-05T10:37:10.980Z,6.85
2022-10-05T10:40:01.801Z,5.13
2022-10-05T10:42:38.041Z,5.80
2022-10-05T10:45:34.073Z,2.85
2022-10-05T10:48:10.705Z,7.13
2022-10-05T10:51:19.201Z,4.78
2022-10-05T10:54:07.564Z,5.95
2022-10-05T10:56:48.778Z,2.97
2022-10-05T10:59:43.623Z,4.07
2022-10-05T11:02:48.200Z,5.13
2022-10-05T11:05:33.851Z,4.20
2022-10-05T11:08:31.306Z,4.03
2022-10-05T11:10:59.039Z,4.55
2022-10-05T11:13:41.904Z,5.45
2022-10-05T11:16:33.799Z,6.82
2022-10-05T11:19:24.847Z,4.03
2022-10-05T11:22:17.242Z,6.00
2022-10-05T11:25:17.247Z,5.18
2022-10-05T11:27:49.854Z,6.15
2022-10-05T11:30:23.092Z,5.32
2022-10-05T11:33:21.159Z,3.88
2022-10-05T11:36:25.821Z,4.88
2022-10-05T11:39:27.128Z,4.63
2022-10-05T11:42:16.989Z,3.78
2022-10-05T11:44:58.607Z,3.83
2022-10-05T11:47:32.416Z,9.52
2022-10-05T11:50:11.435Z,4.50
2022-10-05T11:52:55.720Z,6.65
2022-10-05T11:55:45.033Z,4.57
2022-10-05T11:58:26.098Z,4.35
2022-10-05T12:01:03.105Z,6.55
2022-10-05T12:03:46.550Z,3.25
2022-10-05T12:06:22.458Z,4.68
2022-10-05T12:09:28.257Z,6.72
2022-10-05T12:14:33.459Z,7.93
2022-10-05T12:20:49.653Z,3.22
2022-10-05T12:23:34.652Z,4.03
2022-10-05T12:26:11.104Z,6.07
2022-10-05T12:29:00.922Z,5.53
2022-10-05T12:31:57.953Z,5.15
2022-10-05T12:34:52.283Z,5.78
2022-10-05T12:37:41.139Z,5.07
2022-10-05T12:40:25.924Z,4.63
2022-10-05T12:43:26.679Z,7.13
2022-10-05T12:46:24.281Z,4.55
2022-10-05T12:48:57.745Z,3.90
2022-10-05T12:51:27.640Z,4.38
2022-10-05T12:54:25.784Z,2.97
2022-10-05T12:57:14.712Z,4.38
2022-10-05T13:00:07.769Z,6.32
2022-10-05T13:02:44.384Z,3.33
2022-10-05T13:05:11.238Z,4.30
2022-10-05T13:08:22.674Z,5.40
2022-10-05T13:10:53.448Z,5.63
2022-10-05T13:13:20.528Z,4.15
2022-10-05T13:15:54.276Z,5.80
2022-10-05T13:18:49.855Z,4.57
2022-10-05T13:21:22.877Z,6.43
2022-10-05T13:24:07.032Z,5.05
2022-10-05T13:26:39.029Z,4.37
2022-10-05T13:29:15.453Z,2.72
2022-10-05T13:31:49.279Z,5.35
2022-10-05T13:34:31.806Z,6.15
2022-10-05T13:37:17.733Z,4.20
2022-10-05T13:39:50.706Z,5.63
2022-10-05T13:42:45.876Z,6.32
2022-10-05T13:45:23.552Z,4.75
2022-10-05T13:48:13.436Z,5.28
2022-10-05T13:51:05.347Z,6.07
2022-10-05T13:53:45.287Z,4.80
2022-10-05T13:56:26.368Z,3.08
2022-10-05T13:59:16.843Z,7.25
2022-10-05T14:02:01.155Z,4.82
2022-10-05T14:04:50.967Z,4.68
2022-10-05T14:07:29.833Z,4.28
2022-10-05T14:09:58.097Z,3.92
2022-10-05T14:12:26.965Z,5.47
2022-10-05T14:14:58.428Z,4.88
2022-10-05T14:17:40.952Z,4.57
2022-10-05T14:20:23.480Z,3.92
2022-10-05T14:22:57.765Z,6.45
2022-10-05T14:27:52.072Z,7.88
2022-10-05T14:30:25.672Z,4.05
2022-10-05T14:32:56.313Z,3.70
2022-10-05T14:35:53.834Z,5.72
2022-10-05T14:38:22.666Z,8.15
2022-10-05T14:41:04.444Z,6.55
2022-10-05T14:43:32.278Z,4.80
2022-10-05T14:46:23.247Z,4.18
2022-10-05T14:49:23.287Z,4.50
2022-10-05T14:51:51.636Z,6.82
2022-10-05T14:54:33.975Z,4.65
2022-10-05T14:57:02.470Z,6.18
2022-10-05T14:59:37.767Z,6.13
2022-10-05T15:02:45.070Z,5.30
2022-10-05T15:05:16.706Z,4.57
2022-10-05T15:07:46.884Z,7.75
2022-10-05T15:10:41.975Z,5.30
2022-10-05T15:13:14.280Z,5.18
2022-10-05T15:16:12.279Z,6.60
2022-10-05T15:18:54.637Z,5.55
2022-10-05T15:21:48.266Z,4.93
2022-10-05T15:24:19.797Z,8.65
2022-10-05T15:26:50.602Z,5.72
2022-10-05T15:29:36.311Z,6.07
2022-10-05T15:32:14.755Z,5.70
2022-10-05T15:35:04.185Z,7.45
2022-10-05T15:37:43.005Z,8.20
2022-10-05T15:40:45.444Z,6.13
2022-10-05T15:43:17.515Z,6.68
2022-10-05T15:46:13.988Z,4.43
2022-10-05T15:49:00.631Z,3.97
2022-10-05T15:52:09.088Z,6.75
2022-10-05T15:55:13.628Z,6.05
2022-10-05T15:58:17.672Z,3.67
2022-10-05T16:00:58.768Z,5.65
2022-10-05T16:03:51.179Z,6.18
2022-10-05T16:06:48.706Z,6.10
2022-10-05T16:09:32.807Z,6.20
2022-10-05T16:12:37.556Z,7.27
2022-10-05T16:15:30.531Z,4.25
2022-10-05T16:18:06.294Z,4.53
2022-10-05T16:20:45.700Z,3.78
2022-10-05T16:23:38.919Z,5.90
2022-10-05T16:26:24.582Z,6.07
2022-10-05T16:29:36.552Z,7.38
2022-10-05T16:32:21.880Z,10.13
2022-10-05T16:35:05.150Z,5.18
2022-10-05T16:37:36.756Z,6.38
2022-10-05T16:40:16.246Z,4.32
2022-10-05T16:42:56.727Z,5.25
2022-10-05T16:45:45.626Z,5.82
2022-10-05T16:48:30.994Z,6.30
2022-10-05T16:51:24.301Z,8.35
2022-10-05T16:54:00.107Z,4.95
2022-10-05T16:56:34.386Z,7.25
2022-10-05T16:59:33.032Z,7.43
2022-10-05T17:02:06.043Z,6.80
2022-10-05T17:04:48.457Z,8.75
2022-10-05T17:07:44.253Z,7.63
2022-10-05T17:10:37.303Z,4.63
2022-10-05T17:13:44.932Z,7.18
2022-10-05T17:16:26.274Z,5.40
2022-10-05T17:19:01.788Z,6.43
2022-10-05T17:21:40.033Z,5.30
2022-10-05T17:24:24.881Z,7.63
2022-10-05T17:27:02.533Z,9.50
2022-10-05T17:29:52.304Z,6.18
2022-10-05T17:32:19.298Z,7.60
2022-10-05T17:35:18.231Z,5.47
2022-10-05T17:38:24.232Z,5.95
2022-10-05T17:43:28.980Z,8.73
2022-10-05T17:46:01.686Z,7.85
2022-10-05T17:48:49.630Z,8.95
2022-10-05T17:51:47.101Z,10.07
2022-10-05T17:54:44.296Z,5.45
2022-10-05T17:57:14.469Z,5.90
2022-10-05T17:59:53.361Z,6.25
2022-10-05T18:02:22.098Z,5.03
2022-10-05T18:05:16.192Z,4.85
2022-10-05T18:07:48.848Z,6.20
2022-10-05T18:10:29.113Z,9.43
2022-10-05T18:13:04.742Z,5.78
2022-10-05T18:15:31.860Z,9.43
2022-10-05T18:18:20.886Z,9.80
2022-10-05T18:21:23.134Z,7.35
2022-10-05T18:23:53.094Z,6.70
2022-10-05T18:27:02.558Z,7.38
2022-10-05T18:30:03.910Z,5.55
2022-10-05T18:32:39.193Z,7.13
2022-10-05T18:35:27.472Z,8.35
2022-10-05T18:38:53.503Z,8.25
2022-10-05T18:41:39.177Z,9.13
2022-10-05T18:44:14.932Z,9.95
2022-10-05T18:47:06.492Z,9.35
2022-10-05T18:50:06.022Z,8.85
2022-10-05T18:52:54.984Z,7.70
2022-10-05T18:55:34.124Z,9.15
2022-10-05T18:58:08.484Z,11.40
2022-10-05T19:00:56.700Z,11.35
2022-10-05T19:03:30.179Z,11.35
2022-10-05T19:06:13.228Z,12.38
2022-10-05T19:09:01.391Z,14.43
2022-10-05T19:11:48.115Z,16.23
2022-10-05T19:14:24.161Z,14.00
2022-10-05T19:17:01.004Z,15.15
2022-10-05T19:20:00.517Z,13.93
2022-10-05T19:22:34.752Z,11.48
2022-10-05T19:25:24.730Z,12.05
2022-10-05T19:28:20.786Z,13.93
2022-10-05T19:31:11.550Z,13.15
2022-10-05T19:34:19.306Z,11.25
2022-10-05T19:37:15.660Z,16.98
2022-10-05T19:40:09.734Z,10.30
2022-10-05T19:42:46.158Z,11.73
2022-10-05T19:45:26.708Z,13.95
2022-10-05T19:47:58.947Z,11.50
2022-10-05T19:50:32.950Z,9.48
2022-10-05T19:53:14.493Z,10.00
2022-10-05T19:55:43.917Z,8.93
2022-10-05T19:58:39.601Z,5.85
2022-10-05T20:01:11.375Z,6.68
2022-10-05T20:03:38.342Z,8.55
2022-10-05T20:06:07.888Z,10.48
2022-10-05T20:08:44.439Z,12.70
2022-10-05T20:11:17.076Z,11.68
2022-10-05T20:13:47.247Z,13.35
2022-10-05T20:16:35.507Z,11.88
2022-10-05T20:19:42.850Z,11.98
2022-10-05T20:22:38.011Z,10.50
2022-10-05T20:25:19.285Z,11.25
2022-10-05T20:27:50.575Z,9.95
2022-10-05T20:30:25.783Z,14.02
2022-10-05T20:32:58.232Z,12.95
2022-10-05T20:35:28.895Z,14.40
2022-10-05T20:37:59.472Z,11.55
2022-10-05T20:40:29.197Z,8.63
2022-10-05T20:42:57.607Z,11.77
2022-10-05T20:45:24.552Z,13.18
2022-10-05T20:47:51.592Z,12.70
2022-10-05T20:50:18.608Z,8.93
2022-10-05T20:52:46.014Z,11.07
2022-10-05T20:55:12.909Z,8.55
2022-10-05T20:57:42.238Z,10.77
2022-10-05T21:00:11.832Z,9.95
2022-10-05T21:02:39.555Z,12.00
2022-10-05T21:05:07.729Z,10.95
2022-10-05T21:07:34.821Z,14.82
2022-10-05T21:10:03.343Z,8.57
2022-10-05T21:12:30.349Z,9.10
2022-10-05T21:14:59.497Z,12.55
2022-10-05T21:17:26.400Z,11.95
2022-10-05T21:19:53.184Z,14.00
2022-10-05T21:22:20.046Z,11.65
2022-10-05T21:24:46.911Z,12.27
2022-10-05T21:27:14.247Z,10.73
2022-10-05T21:29:41.411Z,13.05
2022-10-05T21:32:11.704Z,14.50
2022-10-05T21:34:40.276Z,8.20
2022-10-05T21:37:08.113Z,15.05
2022-10-05T21:39:35.378Z,9.77
2022-10-05T21:42:02.308Z,13.50
2022-10-05T21:44:29.223Z,14.48
2022-10-05T21:46:56.680Z,14.07
2022-10-05T21:49:25.259Z,11.82
2022-10-05T21:51:52.192Z,16.70
2022-10-05T21:54:22.253Z,14.60
2022-10-05T21:56:52.475Z,13.10
2022-10-05T21:59:22.694Z,15.07
2022-10-05T22:01:49.607Z,8.27
2022-10-05T22:04:16.587Z,9.50
2022-10-05T22:06:43.674Z,16.02
2022-10-05T22:09:10.891Z,11.70
2022-10-05T22:11:38.262Z,14.57
2022-10-05T22:14:05.282Z,19.30
2022-10-05T22:16:36.621Z,12.77
2022-10-05T22:19:06.365Z,15.88
2022-10-05T22:21:37.998Z,14.82
2022-10-05T22:24:05.468Z,7.13
2022-10-05T22:26:33.105Z,13.50
2022-10-05T22:29:01.735Z,13.90
2022-10-05T22:31:28.714Z,10.45
2022-10-05T22:33:55.647Z,10.82
2022-10-05T22:36:22.969Z,11.15
2022-10-05T22:38:49.908Z,12.70
2022-10-05T22:41:18.505Z,12.65
2022-10-05T22:43:50.005Z,11.38
2022-10-05T22:46:17.514Z,13.00
2022-10-05T22:48:44.686Z,15.48
2022-10-05T22:51:11.605Z,15.55
2022-10-05T22:53:38.397Z,11.82
2022-10-05T22:56:10.836Z,7.60
2022-10-05T22:58:38.454Z,12.05
2022-10-05T23:01:07.893Z,13.93
2022-10-05T23:03:35.625Z,15.25
2022-10-05T23:06:07.004Z,12.23
2022-10-05T23:08:35.483Z,13.35
2022-10-05T23:11:07.844Z,10.75
2022-10-05T23:13:34.762Z,18.15
2022-10-05T23:16:07.856Z,17.55
2022-10-05T23:18:35.454Z,16.20
2022-10-05T23:21:02.813Z,18.20
2022-10-05T23:23:29.837Z,8.88
2022-10-05T23:26:00.891Z,11.35
2022-10-05T23:28:29.143Z,12.70
2022-10-05T23:31:05.145Z,10.85
2022-10-05T23:33:32.347Z,11.10
2022-10-05T23:36:13.104Z,12.48
2022-10-05T23:38:40.023Z,15.00
2022-10-05T23:41:08.726Z,12.05
2022-10-05T23:43:36.982Z,18.20
2022-10-05T23:46:06.027Z,18.58
2022-10-05T23:48:33.749Z,14.50
2022-10-05T23:51:00.788Z,17.42
2022-10-05T23:53:27.679Z,12.25
2022-10-05T23:55:55.007Z,14.68
2022-10-05T23:58:22.880Z,13.02
